Página principal
METAR-TAF:

METAR-TAF

Aeroportos :

Aeroporto Internacional de Chengdu Shuangliu

Chengdu, China

latitude: 30-40N, longitude: 104-01E, altura: 508 m

Observação actual do tempo

O boletim foi feito há 1 hora e 10 minutos, às 05:00 UTC
Vento 6 kt de nor-nordeste
Temperatura 6°C
Humidade 87%
Pressão 1025 hPa
Visibilidade: 8000 m
Poucas nuvensa uma altura de 1200 ft
Nuvens fragmentadasa uma altura de 2000 ft
chuva fraca

METAR: ZUUU 100500Z 02003MPS 8000 -RA FEW012 BKN020 06/04 Q1025 NOSIG

Hora: 14:10 (06:10 UTC)

Previsão

O boletim foi feito há 4 horas e 0 minutos, às 02:10 UTC
Previsão válida de 10 às 06 UTC a 11 às 06 UTC
Vento 6 kt de nor-nordeste
Visibilidade: 5000 m
Nuvens dispersasa uma altura de 4000 ft
neblina

TAF: ZUUU 100210Z 1006/1106 02003MPS 5000 BR SCT040 TX09/1105Z TN04/1023Z

Observações e previsões do tempo de mais de 4000 aeroportos (mensagens METAR e TAF).

As estações disponíveis são os pontos amarelos e vermelhos sobre o mapa.

Mova o rato sobre o mapa para ver o nome da estação.

Depois clique no ponto para visualizar as observações e previsões meteorológicas.

Para alterar o mapa : clique nos botões verdes com uma cruz preta para aumentar o zoom; no botão verde com uma pitada de zoom; ou nas setas verdes para mapas adjacentes.


METAR-TAF: